sensor_id;sensor_type;location;lat;lon;timestamp;pressure;altitude;pressure_sealevel;temperature;humidity
55187;BME280;55457;52.002;5.464;2023-05-02T00:00:46;101807.94;;;20.64;40.68
55187;BME280;55457;52.002;5.464;2023-05-02T00:03:12;101812.31;;;20.65;40.69
55187;BME280;55457;52.002;5.464;2023-05-02T00:05:37;101806.88;;;20.65;40.88
55187;BME280;55457;52.002;5.464;2023-05-02T00:08:03;101804.19;;;20.65;41.00
55187;BME280;55457;52.002;5.464;2023-05-02T00:10:29;101810.66;;;20.64;41.06
55187;BME280;55457;52.002;5.464;2023-05-02T00:12:54;101802.53;;;20.64;41.04
55187;BME280;55457;52.002;5.464;2023-05-02T00:15:20;101806.06;;;20.64;40.92
55187;BME280;55457;52.002;5.464;2023-05-02T00:17:45;101807.94;;;20.64;40.91
55187;BME280;55457;52.002;5.464;2023-05-02T00:20:11;101806.06;;;20.64;40.95
55187;BME280;55457;52.002;5.464;2023-05-02T00:22:37;101799.81;;;20.64;41.11
55187;BME280;55457;52.002;5.464;2023-05-02T00:25:02;101810.66;;;20.64;40.72
55187;BME280;55457;52.002;5.464;2023-05-02T00:27:29;101798.16;;;20.63;41.06
55187;BME280;55457;52.002;5.464;2023-05-02T00:29:54;101803.59;;;20.63;40.75
55187;BME280;55457;52.002;5.464;2023-05-02T00:32:19;101816.06;;;20.64;41.04
55187;BME280;55457;52.002;5.464;2023-05-02T00:34:45;101817.13;;;20.63;41.13
55187;BME280;55457;52.002;5.464;2023-05-02T00:37:10;101816.31;;;20.62;40.93
55187;BME280;55457;52.002;5.464;2023-05-02T00:39:37;101814.41;;;20.63;40.85
55187;BME280;55457;52.002;5.464;2023-05-02T00:42:02;101807.31;;;20.62;40.80
55187;BME280;55457;52.002;5.464;2023-05-02T00:44:28;101807.31;;;20.62;40.87
55187;BME280;55457;52.002;5.464;2023-05-02T00:46:54;101811.72;;;20.63;41.06
55187;BME280;55457;52.002;5.464;2023-05-02T00:49:20;101814.41;;;20.63;40.98
55187;BME280;55457;52.002;5.464;2023-05-02T00:51:45;101805.47;;;20.62;40.86
55187;BME280;55457;52.002;5.464;2023-05-02T00:54:11;101806.31;;;20.63;40.99
55187;BME280;55457;52.002;5.464;2023-05-02T00:56:37;101808.38;;;20.61;41.06
55187;BME280;55457;52.002;5.464;2023-05-02T00:59:03;101820.03;;;20.61;40.85
55187;BME280;55457;52.002;5.464;2023-05-02T01:05:04;101827.34;;;20.61;41.02
55187;BME280;55457;52.002;5.464;2023-05-02T01:07:35;101825.69;;;20.59;41.07
55187;BME280;55457;52.002;5.464;2023-05-02T01:10:25;101821.91;;;20.61;40.99
55187;BME280;55457;52.002;5.464;2023-05-02T01:13:00;101829.00;;;20.62;41.02
55187;BME280;55457;52.002;5.464;2023-05-02T01:15:27;101821.09;;;20.60;41.06
55187;BME280;55457;52.002;5.464;2023-05-02T01:17:53;101820.28;;;20.59;40.95
55187;BME280;55457;52.002;5.464;2023-05-02T01:20:22;101825.69;;;20.59;40.84
55187;BME280;55457;52.002;5.464;2023-05-02T01:22:51;101826.50;;;20.60;41.07
55187;BME280;55457;52.002;5.464;2023-05-02T01:25:26;101831.09;;;20.59;40.82
55187;BME280;55457;52.002;5.464;2023-05-02T01:30:29;101836.53;;;20.59;40.99
55187;BME280;55457;52.002;5.464;2023-05-02T01:32:58;101848.19;;;20.60;40.99
55187;BME280;55457;52.002;5.464;2023-05-02T01:35:26;101851.13;;;20.58;41.12
55187;BME280;55457;52.002;5.464;2023-05-02T01:37:53;101851.94;;;20.59;41.13
55187;BME280;55457;52.002;5.464;2023-05-02T01:40:21;101851.72;;;20.61;40.89
55187;BME280;55457;52.002;5.464;2023-05-02T01:42:49;101858.19;;;20.59;41.04
55187;BME280;55457;52.002;5.464;2023-05-02T01:45:15;101858.41;;;20.58;41.06
55187;BME280;55457;52.002;5.464;2023-05-02T01:47:42;101862.78;;;20.59;40.94
55187;BME280;55457;52.002;5.464;2023-05-02T01:50:10;101872.78;;;20.58;41.15
55187;BME280;55457;52.002;5.464;2023-05-02T01:52:37;101876.53;;;20.57;41.07
55187;BME280;55457;52.002;5.464;2023-05-02T01:55:05;101878.19;;;20.58;41.13
55187;BME280;55457;52.002;5.464;2023-05-02T01:57:32;101878.19;;;20.58;41.12
55187;BME280;55457;52.002;5.464;2023-05-02T01:59:58;101885.28;;;20.59;41.13
55187;BME280;55457;52.002;5.464;2023-05-02T02:02:26;101886.56;;;20.57;41.07
55187;BME280;55457;52.002;5.464;2023-05-02T02:04:56;101886.56;;;20.57;41.07
55187;BME280;55457;52.002;5.464;2023-05-02T02:07:22;101882.78;;;20.58;41.04
55187;BME280;55457;52.002;5.464;2023-05-02T02:09:47;101890.09;;;20.57;41.22
55187;BME280;55457;52.002;5.464;2023-05-02T02:12:22;101894.44;;;20.58;41.25
55187;BME280;55457;52.002;5.464;2023-05-02T02:14:55;101887.38;;;20.57;41.23
55187;BME280;55457;52.002;5.464;2023-05-02T02:17:25;101893.63;;;20.58;41.24
55187;BME280;55457;52.002;5.464;2023-05-02T02:19:52;101898.22;;;20.57;41.10
55187;BME280;55457;52.002;5.464;2023-05-02T02:22:20;101900.28;;;20.55;41.05
55187;BME280;55457;52.002;5.464;2023-05-02T02:24:47;101908.22;;;20.57;41.08
55187;BME280;55457;52.002;5.464;2023-05-02T02:27:13;101911.13;;;20.55;41.30
55187;BME280;55457;52.002;5.464;2023-05-02T02:29:39;101915.47;;;20.56;41.16
55187;BME280;55457;52.002;5.464;2023-05-02T02:32:04;101921.97;;;20.55;41.26
55187;BME280;55457;52.002;5.464;2023-05-02T02:34:30;101921.97;;;20.55;41.11
55187;BME280;55457;52.002;5.464;2023-05-02T02:37:04;101927.38;;;20.55;41.05
55187;BME280;55457;52.002;5.464;2023-05-02T02:39:54;101933.63;;;20.56;41.26
55187;BME280;55457;52.002;5.464;2023-05-02T02:42:36;101936.31;;;20.56;41.03
55187;BME280;55457;52.002;5.464;2023-05-02T02:47:56;101938.22;;;20.55;41.12
55187;BME280;55457;52.002;5.464;2023-05-02T02:50:31;101932.78;;;20.55;41.09
55187;BME280;55457;52.002;5.464;2023-05-02T02:53:05;101938.22;;;20.55;41.09
55187;BME280;55457;52.002;5.464;2023-05-02T02:55:37;101933.84;;;20.54;41.21
55187;BME280;55457;52.002;5.464;2023-05-02T03:00:39;101947.38;;;20.54;41.32
55187;BME280;55457;52.002;5.464;2023-05-02T03:03:06;101951.16;;;20.53;40.96
55187;BME280;55457;52.002;5.464;2023-05-02T03:05:32;101956.56;;;20.53;41.13
55187;BME280;55457;52.002;5.464;2023-05-02T03:07:58;101960.09;;;20.54;40.98
55187;BME280;55457;52.002;5.464;2023-05-02T03:10:24;101959.28;;;20.53;41.17
55187;BME280;55457;52.002;5.464;2023-05-02T03:12:49;101959.28;;;20.53;40.92
55187;BME280;55457;52.002;5.464;2023-05-02T03:17:57;101965.75;;;20.52;40.91
55187;BME280;55457;52.002;5.464;2023-05-02T03:20:22;101977.41;;;20.53;41.05
55187;BME280;55457;52.002;5.464;2023-05-02T03:22:47;101974.69;;;20.53;40.92
55187;BME280;55457;52.002;5.464;2023-05-02T03:25:13;101976.56;;;20.52;41.10
55187;BME280;55457;52.002;5.464;2023-05-02T03:27:38;101976.56;;;20.52;40.86
55187;BME280;55457;52.002;5.464;2023-05-02T03:30:04;101981.16;;;20.52;40.88
55187;BME280;55457;52.002;5.464;2023-05-02T03:32:29;101978.47;;;20.52;40.76
55187;BME280;55457;52.002;5.464;2023-05-02T03:34:55;101985.72;;;20.51;41.12
55187;BME280;55457;52.002;5.464;2023-05-02T03:37:23;101986.56;;;20.52;41.14
55187;BME280;55457;52.002;5.464;2023-05-02T03:39:49;101985.72;;;20.51;41.04
55187;BME280;55457;52.002;5.464;2023-05-02T03:42:14;101991.13;;;20.51;40.92
55187;BME280;55457;52.002;5.464;2023-05-02T03:44:39;102001.97;;;20.51;40.97
55187;BME280;55457;52.002;5.464;2023-05-02T03:47:05;102004.69;;;20.51;40.83
55187;BME280;55457;52.002;5.464;2023-05-02T03:49:33;102001.97;;;20.51;41.07
55187;BME280;55457;52.002;5.464;2023-05-02T03:51:59;102001.13;;;20.51;41.12
55187;BME280;55457;52.002;5.464;2023-05-02T03:54:25;101998.44;;;20.51;40.92
55187;BME280;55457;52.002;5.464;2023-05-02T03:56:52;102001.97;;;20.51;41.01
55187;BME280;55457;52.002;5.464;2023-05-02T03:59:18;102004.91;;;20.50;40.92
55187;BME280;55457;52.002;5.464;2023-05-02T04:01:44;102005.72;;;20.50;40.96
55187;BME280;55457;52.002;5.464;2023-05-02T04:04:13;102005.72;;;20.50;40.92
55187;BME280;55457;52.002;5.464;2023-05-02T04:06:38;102002.41;;;20.48;40.92
55187;BME280;55457;52.002;5.464;2023-05-02T04:09:04;102011.97;;;20.51;40.76
55187;BME280;55457;52.002;5.464;2023-05-02T04:11:32;102013.25;;;20.48;40.92
55187;BME280;55457;52.002;5.464;2023-05-02T04:13:57;102023.03;;;20.49;40.86
55187;BME280;55457;52.002;5.464;2023-05-02T04:16:23;102024.91;;;20.49;40.96
55187;BME280;55457;52.002;5.464;2023-05-02T04:18:48;102031.16;;;20.49;41.01
55187;BME280;55457;52.002;5.464;2023-05-02T04:21:13;102035.75;;;20.49;40.98
55187;BME280;55457;52.002;5.464;2023-05-02T04:23:39;102042.81;;;20.50;40.99
55187;BME280;55457;52.002;5.464;2023-05-02T04:26:04;102041.16;;;20.49;40.73
55187;BME280;55457;52.002;5.464;2023-05-02T04:28:30;102042.81;;;20.50;40.86
55187;BME280;55457;52.002;5.464;2023-05-02T04:30:55;102043.88;;;20.49;40.86
55187;BME280;55457;52.002;5.464;2023-05-02T04:33:21;102049.28;;;20.49;40.90
55187;BME280;55457;52.002;5.464;2023-05-02T04:35:48;102052.81;;;20.49;40.78
55187;BME280;55457;52.002;5.464;2023-05-02T04:38:13;102062.00;;;20.48;40.87
55187;BME280;55457;52.002;5.464;2023-05-02T04:40:39;102063.66;;;20.49;40.72
55187;BME280;55457;52.002;5.464;2023-05-02T04:43:05;102056.56;;;20.48;41.02
55187;BME280;55457;52.002;5.464;2023-05-02T04:45:30;102072.81;;;20.48;40.97
55187;BME280;55457;52.002;5.464;2023-05-02T04:47:56;102086.38;;;20.48;40.95
55187;BME280;55457;52.002;5.464;2023-05-02T04:50:21;102074.91;;;20.46;40.92
55187;BME280;55457;52.002;5.464;2023-05-02T04:52:47;102079.28;;;20.47;40.87
55187;BME280;55457;52.002;5.464;2023-05-02T04:55:12;102084.72;;;20.47;40.82
55187;BME280;55457;52.002;5.464;2023-05-02T04:57:37;102087.41;;;20.47;41.00
55187;BME280;55457;52.002;5.464;2023-05-02T05:00:04;102092.00;;;20.47;40.81
55187;BME280;55457;52.002;5.464;2023-05-02T05:02:30;102096.56;;;20.46;40.93
55187;BME280;55457;52.002;5.464;2023-05-02T05:04:55;102103.66;;;20.47;40.73
55187;BME280;55457;52.002;5.464;2023-05-02T05:07:20;102101.97;;;20.46;40.68
55187;BME280;55457;52.002;5.464;2023-05-02T05:09:46;102113.66;;;20.47;40.92
55187;BME280;55457;52.002;5.464;2023-05-02T05:12:11;102110.09;;;20.46;40.81
55187;BME280;55457;52.002;5.464;2023-05-02T05:14:37;102119.09;;;20.47;40.71
55187;BME280;55457;52.002;5.464;2023-05-02T05:17:02;102119.09;;;20.47;40.83
55187;BME280;55457;52.002;5.464;2023-05-02T05:19:27;102118.22;;;20.46;40.86
55187;BME280;55457;52.002;5.464;2023-05-02T05:21:53;102120.94;;;20.46;40.75
55187;BME280;55457;52.002;5.464;2023-05-02T05:24:18;102129.06;;;20.46;40.87
55187;BME280;55457;52.002;5.464;2023-05-02T05:26:43;102129.91;;;20.47;40.88
55187;BME280;55457;52.002;5.464;2023-05-02T05:29:09;102133.47;;;20.47;40.85
55187;BME280;55457;52.002;5.464;2023-05-02T05:31:34;102136.16;;;20.47;40.77
55187;BME280;55457;52.002;5.464;2023-05-02T05:33:59;102129.06;;;20.46;40.77
55187;BME280;55457;52.002;5.464;2023-05-02T05:36:26;102140.53;;;20.48;40.77
55187;BME280;55457;52.002;5.464;2023-05-02T05:38:52;102143.22;;;20.48;40.70
55187;BME280;55457;52.002;5.464;2023-05-02T05:41:17;102150.72;;;20.46;40.75
55187;BME280;55457;52.002;5.464;2023-05-02T05:43:42;102148.66;;;20.48;40.74
55187;BME280;55457;52.002;5.464;2023-05-02T05:46:08;102149.47;;;20.49;40.60
55187;BME280;55457;52.002;5.464;2023-05-02T05:48:33;102154.06;;;20.48;40.74
55187;BME280;55457;52.002;5.464;2023-05-02T05:51:05;102164.91;;;20.48;40.79
55187;BME280;55457;52.002;5.464;2023-05-02T05:53:31;102164.91;;;20.48;40.73
55187;BME280;55457;52.002;5.464;2023-05-02T05:55:56;102174.91;;;20.48;40.54
55187;BME280;55457;52.002;5.464;2023-05-02T05:58:22;102177.38;;;20.49;40.67
55187;BME280;55457;52.002;5.464;2023-05-02T06:00:47;102186.56;;;20.48;40.66
55187;BME280;55457;52.002;5.464;2023-05-02T06:03:13;102185.72;;;20.48;40.68
55187;BME280;55457;52.002;5.464;2023-05-02T06:05:38;102185.72;;;20.48;40.71
55187;BME280;55457;52.002;5.464;2023-05-02T06:08:04;102193.03;;;20.47;40.61
55187;BME280;55457;52.002;5.464;2023-05-02T06:10:30;102193.84;;;20.48;40.50
55187;BME280;55457;52.002;5.464;2023-05-02T06:12:56;102194.69;;;20.48;40.57
55187;BME280;55457;52.002;5.464;2023-05-02T06:15:21;102209.88;;;20.49;40.67
55187;BME280;55457;52.002;5.464;2023-05-02T06:17:47;102219.06;;;20.48;40.54
55187;BME280;55457;52.002;5.464;2023-05-02T06:20:12;102214.47;;;20.49;40.73
55187;BME280;55457;52.002;5.464;2023-05-02T06:22:38;102228.84;;;20.49;40.74
55187;BME280;55457;52.002;5.464;2023-05-02T06:25:04;102223.44;;;20.49;40.48
55187;BME280;55457;52.002;5.464;2023-05-02T06:27:30;102223.44;;;20.49;40.62
55187;BME280;55457;52.002;5.464;2023-05-02T06:29:55;102226.97;;;20.50;40.53
55187;BME280;55457;52.002;5.464;2023-05-02T06:32:21;102230.50;;;20.50;40.44
55187;BME280;55457;52.002;5.464;2023-05-02T06:34:46;102234.03;;;20.51;40.46
55187;BME280;55457;52.002;5.464;2023-05-02T06:37:12;102234.88;;;20.51;40.55
55187;BME280;55457;52.002;5.464;2023-05-02T06:39:37;102235.72;;;20.52;40.64
55187;BME280;55457;52.002;5.464;2023-05-02T06:42:03;102241.16;;;20.52;40.51
55187;BME280;55457;52.002;5.464;2023-05-02T06:44:28;102241.97;;;20.52;40.71
55187;BME280;55457;52.002;5.464;2023-05-02T06:46:54;102251.75;;;20.53;40.53
55187;BME280;55457;52.002;5.464;2023-05-02T06:49:20;102254.47;;;20.53;40.70
55187;BME280;55457;52.002;5.464;2023-05-02T06:51:46;102264.25;;;20.54;40.36
55187;BME280;55457;52.002;5.464;2023-05-02T06:54:11;102269.66;;;20.54;40.49
55187;BME280;55457;52.002;5.464;2023-05-02T06:56:36;102277.78;;;20.54;40.46
55187;BME280;55457;52.002;5.464;2023-05-02T06:59:02;102272.38;;;20.54;40.56
55187;BME280;55457;52.002;5.464;2023-05-02T07:01:27;102275.31;;;20.53;40.61
55187;BME280;55457;52.002;5.464;2023-05-02T07:03:52;102279.91;;;20.52;40.40
55187;BME280;55457;52.002;5.464;2023-05-02T07:06:18;102281.56;;;20.53;40.46
55187;BME280;55457;52.002;5.464;2023-05-02T07:08:44;102286.13;;;20.53;40.53
55187;BME280;55457;52.002;5.464;2023-05-02T07:11:09;102289.91;;;20.52;40.34
55187;BME280;55457;52.002;5.464;2023-05-02T07:13:34;102290.72;;;20.52;40.43
55187;BME280;55457;52.002;5.464;2023-05-02T07:16:00;102294.44;;;20.51;40.61
55187;BME280;55457;52.002;5.464;2023-05-02T07:18:25;102299.88;;;20.51;40.70
55187;BME280;55457;52.002;5.464;2023-05-02T07:20:51;102296.97;;;20.53;40.41
55187;BME280;55457;52.002;5.464;2023-05-02T07:23:16;102301.56;;;20.52;40.43
55187;BME280;55457;52.002;5.464;2023-05-02T07:25:41;102298.63;;;20.54;40.54
55187;BME280;55457;52.002;5.464;2023-05-02T07:28:07;102308.41;;;20.55;40.35
55187;BME280;55457;52.002;5.464;2023-05-02T07:30:32;102313.00;;;20.54;40.49
55187;BME280;55457;52.002;5.464;2023-05-02T07:32:58;102313.63;;;20.56;40.54
55187;BME280;55457;52.002;5.464;2023-05-02T07:35:23;102322.59;;;20.57;40.25
55187;BME280;55457;52.002;5.464;2023-05-02T07:37:48;102317.19;;;20.57;40.34
55187;BME280;55457;52.002;5.464;2023-05-02T07:40:14;102315.31;;;20.57;39.98
55187;BME280;55457;52.002;5.464;2023-05-02T07:42:39;102317.78;;;20.59;40.07
55187;BME280;55457;52.002;5.464;2023-05-02T07:45:08;102320.72;;;20.57;40.13
55187;BME280;55457;52.002;5.464;2023-05-02T07:47:34;102330.50;;;20.58;40.33
55187;BME280;55457;52.002;5.464;2023-05-02T07:50:00;102322.38;;;20.58;40.10
55187;BME280;55457;52.002;5.464;2023-05-02T07:52:25;102327.81;;;20.58;40.30
55187;BME280;55457;52.002;5.464;2023-05-02T07:54:51;102335.09;;;20.58;40.23
55187;BME280;55457;52.002;5.464;2023-05-02T07:57:16;102331.56;;;20.57;40.10
55187;BME280;55457;52.002;5.464;2023-05-02T07:59:42;102341.34;;;20.58;40.33
55187;BME280;55457;52.002;5.464;2023-05-02T08:02:08;102354.06;;;20.58;40.47
55187;BME280;55457;52.002;5.464;2023-05-02T08:04:33;102349.47;;;20.58;40.18
55187;BME280;55457;52.002;5.464;2023-05-02T08:06:59;102355.72;;;20.59;40.13
55187;BME280;55457;52.002;5.464;2023-05-02T08:09:24;102351.34;;;20.58;40.18
55187;BME280;55457;52.002;5.464;2023-05-02T08:11:50;102355.94;;;20.57;39.76
55187;BME280;55457;52.002;5.464;2023-05-02T08:14:15;102358.66;;;20.57;40.06
55187;BME280;55457;52.002;5.464;2023-05-02T08:16:41;102358.66;;;20.57;40.11
55187;BME280;55457;52.002;5.464;2023-05-02T08:19:06;102360.31;;;20.58;40.21
55187;BME280;55457;52.002;5.464;2023-05-02T08:21:32;102368.44;;;20.58;40.20
55187;BME280;55457;52.002;5.464;2023-05-02T08:23:58;102365.72;;;20.58;40.00
55187;BME280;55457;52.002;5.464;2023-05-02T08:26:24;102373.84;;;20.58;39.98
55187;BME280;55457;52.002;5.464;2023-05-02T08:28:53;102372.81;;;20.59;40.15
55187;BME280;55457;52.002;5.464;2023-05-02T08:31:19;102371.75;;;20.61;40.04
55187;BME280;55457;52.002;5.464;2023-05-02T08:33:44;102376.13;;;20.62;40.18
55187;BME280;55457;52.002;5.464;2023-05-02T08:36:11;102381.53;;;20.62;39.94
55187;BME280;55457;52.002;5.464;2023-05-02T08:38:36;102390.72;;;20.61;39.75
55187;BME280;55457;52.002;5.464;2023-05-02T08:41:02;102390.09;;;20.58;40.02
55187;BME280;55457;52.002;5.464;2023-05-02T08:43:28;102398.84;;;20.61;40.05
55187;BME280;55457;52.002;5.464;2023-05-02T08:45:58;102398.84;;;20.61;40.25
55187;BME280;55457;52.002;5.464;2023-05-02T08:48:27;102399.88;;;20.59;39.96
55187;BME280;55457;52.002;5.464;2023-05-02T08:50:52;102404.25;;;20.61;40.08
55187;BME280;55457;52.002;5.464;2023-05-02T08:53:19;102406.97;;;20.61;40.03
55187;BME280;55457;52.002;5.464;2023-05-02T08:55:45;102412.38;;;20.61;40.09
55187;BME280;55457;52.002;5.464;2023-05-02T08:58:12;102408.63;;;20.62;39.96
55187;BME280;55457;52.002;5.464;2023-05-02T09:00:39;102410.31;;;20.63;39.82
55187;BME280;55457;52.002;5.464;2023-05-02T09:03:14;102420.94;;;20.64;39.72
55187;BME280;55457;52.002;5.464;2023-05-02T09:05:52;102420.72;;;20.66;39.96
55187;BME280;55457;52.002;5.464;2023-05-02T09:08:22;102416.78;;;20.68;39.70
55187;BME280;55457;52.002;5.464;2023-05-02T09:10:48;102421.97;;;20.70;39.73
55187;BME280;55457;52.002;5.464;2023-05-02T09:16:05;102424.47;;;20.71;39.87
55187;BME280;55457;52.002;5.464;2023-05-02T09:18:33;102425.31;;;20.72;39.73
55187;BME280;55457;52.002;5.464;2023-05-02T09:20:59;102425.31;;;20.72;39.85
55187;BME280;55457;52.002;5.464;2023-05-02T09:23:39;102427.00;;;20.73;39.84
55187;BME280;55457;52.002;5.464;2023-05-02T09:26:20;102426.13;;;20.72;39.77
55187;BME280;55457;52.002;5.464;2023-05-02T09:28:47;102425.31;;;20.72;39.78
55187;BME280;55457;52.002;5.464;2023-05-02T09:31:17;102430.53;;;20.73;39.78
55187;BME280;55457;52.002;5.464;2023-05-02T09:33:43;102432.41;;;20.73;39.76
55187;BME280;55457;52.002;5.464;2023-05-02T09:36:14;102438.44;;;20.75;39.56
55187;BME280;55457;52.002;5.464;2023-05-02T09:38:41;102439.06;;;20.77;39.67
55187;BME280;55457;52.002;5.464;2023-05-02T09:41:07;102440.75;;;20.78;39.73
55187;BME280;55457;52.002;5.464;2023-05-02T09:43:32;102442.41;;;20.79;39.85
55187;BME280;55457;52.002;5.464;2023-05-02T09:46:02;102438.66;;;20.80;39.58
55187;BME280;55457;52.002;5.464;2023-05-02T09:48:29;102450.34;;;20.80;39.77
55187;BME280;55457;52.002;5.464;2023-05-02T09:50:56;102442.19;;;20.80;39.77
55187;BME280;55457;52.002;5.464;2023-05-02T09:53:24;102440.31;;;20.81;39.72
55187;BME280;55457;52.002;5.464;2023-05-02T09:56:02;102447.41;;;20.82;39.51
55187;BME280;55457;52.002;5.464;2023-05-02T09:58:28;102450.94;;;20.82;39.53
55187;BME280;55457;52.002;5.464;2023-05-02T10:00:56;102456.19;;;20.84;39.69
55187;BME280;55457;52.002;5.464;2023-05-02T10:03:22;102443.47;;;20.84;39.50
55187;BME280;55457;52.002;5.464;2023-05-02T10:05:48;102449.91;;;20.90;39.53
55187;BME280;55457;52.002;5.464;2023-05-02T10:08:15;102443.44;;;20.98;39.50
55187;BME280;55457;52.002;5.464;2023-05-02T10:10:46;102452.00;;;21.01;39.07
55187;BME280;55457;52.002;5.464;2023-05-02T10:13:15;102454.50;;;21.03;39.22
55187;BME280;55457;52.002;5.464;2023-05-02T10:15:45;102460.97;;;21.08;39.42
55187;BME280;55457;52.002;5.464;2023-05-02T10:18:16;102454.91;;;21.13;39.37
55187;BME280;55457;52.002;5.464;2023-05-02T10:20:55;102467.63;;;21.13;39.35
55187;BME280;55457;52.002;5.464;2023-05-02T10:23:21;102459.28;;;21.14;39.41
55187;BME280;55457;52.002;5.464;2023-05-02T10:25:47;102462.41;;;21.18;39.34
55187;BME280;55457;52.002;5.464;2023-05-02T10:28:13;102453.22;;;21.19;39.32
55187;BME280;55457;52.002;5.464;2023-05-02T10:30:39;102459.31;;;21.21;39.04
55187;BME280;55457;52.002;5.464;2023-05-02T10:33:05;102460.97;;;21.22;39.19
55187;BME280;55457;52.002;5.464;2023-05-02T10:35:31;102470.34;;;21.26;39.04
55187;BME280;55457;52.002;5.464;2023-05-02T10:37:57;102476.19;;;21.23;39.15
55187;BME280;55457;52.002;5.464;2023-05-02T10:40:24;102465.56;;;21.34;38.99
55187;BME280;55457;52.002;5.464;2023-05-02T10:42:50;102464.50;;;21.42;39.07
55187;BME280;55457;52.002;5.464;2023-05-02T10:45:36;102471.19;;;21.46;38.79
55187;BME280;55457;52.002;5.464;2023-05-02T10:50:43;102468.25;;;21.48;39.02
55187;BME280;55457;52.002;5.464;2023-05-02T10:53:32;102482.44;;;21.50;38.69
55187;BME280;55457;52.002;5.464;2023-05-02T10:56:11;102469.91;;;21.55;38.54
55187;BME280;55457;52.002;5.464;2023-05-02T10:58:37;102471.78;;;21.55;38.66
55187;BME280;55457;52.002;5.464;2023-05-02T11:03:56;102485.75;;;21.72;38.54
55187;BME280;55457;52.002;5.464;2023-05-02T11:06:25;102481.34;;;21.77;38.58
55187;BME280;55457;52.002;5.464;2023-05-02T11:08:51;102479.47;;;21.78;38.73
55187;BME280;55457;52.002;5.464;2023-05-02T11:11:39;102477.97;;;21.82;38.50
55187;BME280;55457;52.002;5.464;2023-05-02T11:14:11;102485.72;;;21.78;38.40
55187;BME280;55457;52.002;5.464;2023-05-02T11:24:44;102495.75;;;21.78;38.48
55187;BME280;55457;52.002;5.464;2023-05-02T11:30:03;102496.94;;;21.95;38.22
55187;BME280;55457;52.002;5.464;2023-05-02T11:35:24;102494.19;;;22.08;38.04
55187;BME280;55457;52.002;5.464;2023-05-02T11:40:19;102478.91;;;22.21;38.38
55187;BME280;55457;52.002;5.464;2023-05-02T11:42:44;102484.75;;;22.18;37.96
55187;BME280;55457;52.002;5.464;2023-05-02T11:45:09;102486.84;;;22.16;38.27
55187;BME280;55457;52.002;5.464;2023-05-02T11:47:35;102486.81;;;22.22;38.06
55187;BME280;55457;52.002;5.464;2023-05-02T11:50:03;102487.44;;;22.24;38.08
55187;BME280;55457;52.002;5.464;2023-05-02T11:52:36;102486.78;;;22.29;37.89
55187;BME280;55457;52.002;5.464;2023-05-02T11:55:01;102493.91;;;22.30;37.91
55187;BME280;55457;52.002;5.464;2023-05-02T11:57:26;102494.72;;;22.30;37.91
55187;BME280;55457;52.002;5.464;2023-05-02T11:59:54;102503.28;;;22.27;37.96
55187;BME280;55457;52.002;5.464;2023-05-02T12:02:34;102502.44;;;22.33;38.06
55187;BME280;55457;52.002;5.464;2023-05-02T12:05:01;102498.00;;;22.39;37.91
55187;BME280;55457;52.002;5.464;2023-05-02T12:07:45;102505.97;;;22.40;38.04
55187;BME280;55457;52.002;5.464;2023-05-02T12:10:13;102511.22;;;22.35;37.63
55187;BME280;55457;52.002;5.464;2023-05-02T12:12:42;102514.94;;;22.41;38.04
55187;BME280;55457;52.002;5.464;2023-05-02T12:15:09;102502.78;;;22.44;37.75
55187;BME280;55457;52.002;5.464;2023-05-02T12:17:40;102509.28;;;22.43;37.67
55187;BME280;55457;52.002;5.464;2023-05-02T12:20:06;102524.09;;;22.47;37.89
55187;BME280;55457;52.002;5.464;2023-05-02T12:22:33;102516.34;;;22.50;37.74
55187;BME280;55457;52.002;5.464;2023-05-02T12:24:59;102521.34;;;22.53;37.86
55187;BME280;55457;52.002;5.464;2023-05-02T12:27:25;102527.19;;;22.57;37.36
55187;BME280;55457;52.002;5.464;2023-05-02T12:29:52;102512.94;;;22.61;37.43
55187;BME280;55457;52.002;5.464;2023-05-02T12:32:28;102520.66;;;22.64;37.74
55187;BME280;55457;52.002;5.464;2023-05-02T12:34:54;102532.16;;;22.66;37.60
55187;BME280;55457;52.002;5.464;2023-05-02T12:37:23;102544.03;;;22.65;37.65
55187;BME280;55457;52.002;5.464;2023-05-02T12:39:49;102548.00;;;22.70;37.14
55187;BME280;55457;52.002;5.464;2023-05-02T12:42:18;102543.81;;;22.74;37.23
55187;BME280;55457;52.002;5.464;2023-05-02T12:44:46;102548.81;;;22.77;37.13
55187;BME280;55457;52.002;5.464;2023-05-02T12:47:14;102552.97;;;22.79;37.23
55187;BME280;55457;52.002;5.464;2023-05-02T12:49:56;102551.72;;;22.82;37.18
55187;BME280;55457;52.002;5.464;2023-05-02T12:52:57;102549.16;;;22.87;37.12
55187;BME280;55457;52.002;5.464;2023-05-02T12:55:25;102547.94;;;22.83;37.00
55187;BME280;55457;52.002;5.464;2023-05-02T12:58:03;102551.03;;;22.86;37.31
55187;BME280;55457;52.002;5.464;2023-05-02T13:00:33;102559.00;;;22.88;37.55
55187;BME280;55457;52.002;5.464;2023-05-02T13:02:59;102555.84;;;22.91;37.27
55187;BME280;55457;52.002;5.464;2023-05-02T13:05:24;102556.66;;;22.91;37.18
55187;BME280;55457;52.002;5.464;2023-05-02T13:07:50;102553.75;;;22.93;37.14
55187;BME280;55457;52.002;5.464;2023-05-02T13:10:15;102552.47;;;22.96;37.04
55187;BME280;55457;52.002;5.464;2023-05-02T13:12:44;102553.28;;;22.96;36.91
55187;BME280;55457;52.002;5.464;2023-05-02T13:15:11;102540.34;;;22.98;37.22
55187;BME280;55457;52.002;5.464;2023-05-02T13:17:36;102545.78;;;22.98;37.11
55187;BME280;55457;52.002;5.464;2023-05-02T13:20:02;102554.53;;;23.00;36.90
55187;BME280;55457;52.002;5.464;2023-05-02T13:22:27;102558.91;;;23.01;36.70
55187;BME280;55457;52.002;5.464;2023-05-02T13:24:53;102558.72;;;23.03;36.75
55187;BME280;55457;52.002;5.464;2023-05-02T13:27:22;102555.75;;;23.04;36.87
55187;BME280;55457;52.002;5.464;2023-05-02T13:29:51;102563.91;;;23.04;36.93